createdAt,value
2022-11-16T00:00:06.109Z,4.60
2022-11-16T00:02:35.294Z,4.70
2022-11-16T00:05:03.380Z,4.22
2022-11-16T00:07:31.468Z,4.95
2022-11-16T00:09:59.630Z,4.05
2022-11-16T00:12:29.011Z,4.25
2022-11-16T00:14:57.033Z,4.45
2022-11-16T00:17:25.062Z,4.13
2022-11-16T00:19:53.274Z,4.30
2022-11-16T00:22:21.478Z,3.88
2022-11-16T00:24:49.906Z,3.83
2022-11-16T00:27:17.919Z,4.35
2022-11-16T00:29:47.345Z,4.68
2022-11-16T00:32:15.362Z,3.53
2022-11-16T00:34:43.363Z,3.95
2022-11-16T00:37:11.467Z,4.13
2022-11-16T00:39:39.490Z,4.57
2022-11-16T00:42:07.542Z,3.80
2022-11-16T00:44:35.762Z,4.05
2022-11-16T00:47:05.436Z,3.10
2022-11-16T00:49:33.478Z,4.10
2022-11-16T00:52:01.537Z,2.95
2022-11-16T00:54:29.583Z,4.07
2022-11-16T00:56:57.652Z,3.33
2022-11-16T00:59:25.693Z,3.53
2022-11-16T01:01:53.842Z,2.83
2022-11-16T01:04:23.278Z,2.67
2022-11-16T01:06:51.359Z,3.15
2022-11-16T01:09:19.417Z,3.00
2022-11-16T01:12:04.947Z,2.42
2022-11-16T01:14:33.035Z,2.17
2022-11-16T01:17:01.126Z,3.05
2022-11-16T01:19:31.101Z,2.60
2022-11-16T01:22:01.001Z,2.75
2022-11-16T01:24:29.226Z,2.13
2022-11-16T01:26:58.232Z,2.42
2022-11-16T01:29:27.338Z,3.45
2022-11-16T01:31:55.918Z,3.05
2022-11-16T01:34:25.924Z,1.77
2022-11-16T01:36:55.485Z,1.77
2022-11-16T01:39:23.553Z,2.05
2022-11-16T01:41:51.617Z,1.60
2022-11-16T01:45:01.602Z,1.95
2022-11-16T01:47:30.665Z,2.70
2022-11-16T01:50:07.018Z,2.28
2022-11-16T01:52:43.681Z,3.42
2022-11-16T01:55:13.999Z,2.70
2022-11-16T01:57:47.193Z,1.95
2022-11-16T02:00:17.454Z,2.22
2022-11-16T02:02:46.234Z,1.65
2022-11-16T02:05:20.166Z,1.85
2022-11-16T02:08:33.283Z,1.38
2022-11-16T02:11:41.288Z,1.17
2022-11-16T02:14:33.799Z,1.27
2022-11-16T02:17:13.541Z,1.08
2022-11-16T02:20:40.043Z,1.23
2022-11-16T02:23:46.565Z,0.95
2022-11-16T02:26:43.155Z,1.33
2022-11-16T02:29:28.183Z,1.10
2022-11-16T02:32:04.672Z,1.30
2022-11-16T02:34:39.829Z,1.45
2022-11-16T02:37:13.145Z,1.63
2022-11-16T02:39:43.992Z,1.33
2022-11-16T02:42:18.674Z,0.85
2022-11-16T02:44:52.669Z,1.90
2022-11-16T02:47:28.409Z,1.63
2022-11-16T02:50:06.461Z,1.10
2022-11-16T02:52:34.551Z,0.80
2022-11-16T02:55:02.737Z,1.08
2022-11-16T02:57:51.874Z,1.10
2022-11-16T03:00:28.446Z,1.48
2022-11-16T03:03:11.212Z,1.13
2022-11-16T03:05:47.042Z,1.65
2022-11-16T03:08:23.084Z,0.98
2022-11-16T03:11:14.356Z,1.52
2022-11-16T03:13:44.737Z,2.10
2022-11-16T03:16:20.615Z,1.20
2022-11-16T03:18:53.744Z,1.48
2022-11-16T03:21:32.557Z,1.50
2022-11-16T03:24:01.190Z,1.83
2022-11-16T03:26:40.946Z,1.52
2022-11-16T03:29:18.445Z,1.52
2022-11-16T03:31:55.590Z,1.60
2022-11-16T03:37:01.372Z,1.13
2022-11-16T03:39:35.107Z,1.90
2022-11-16T03:42:10.706Z,1.88
2022-11-16T03:44:40.273Z,2.50
2022-11-16T03:47:09.642Z,2.22
2022-11-16T03:49:37.733Z,1.70
2022-11-16T03:52:06.363Z,1.55
2022-11-16T03:54:34.430Z,1.98
2022-11-16T03:57:02.500Z,2.38
2022-11-16T03:59:30.593Z,1.25
2022-11-16T04:01:58.688Z,1.63
2022-11-16T04:04:45.476Z,1.50
2022-11-16T04:07:31.246Z,2.17
2022-11-16T04:10:16.895Z,1.10
2022-11-16T04:13:04.309Z,2.65
2022-11-16T04:15:49.828Z,0.82
2022-11-16T04:18:36.441Z,2.15
2022-11-16T04:21:26.724Z,2.27
2022-11-16T04:24:12.399Z,1.17
2022-11-16T04:27:00.957Z,1.98
2022-11-16T04:29:30.260Z,1.80
2022-11-16T04:32:16.152Z,2.08
2022-11-16T04:35:01.605Z,1.60
2022-11-16T04:37:48.411Z,2.88
2022-11-16T04:40:17.567Z,2.23
2022-11-16T04:42:51.858Z,2.17
2022-11-16T04:45:37.884Z,1.67
2022-11-16T04:48:07.305Z,2.30
2022-11-16T04:50:35.521Z,2.10
2022-11-16T04:53:06.879Z,1.83
2022-11-16T04:55:35.599Z,1.40
2022-11-16T04:58:04.807Z,2.10
2022-11-16T05:00:33.663Z,1.50
2022-11-16T05:03:02.072Z,1.20
2022-11-16T05:05:30.197Z,1.80
2022-11-16T05:07:58.238Z,3.55
2022-11-16T05:10:27.775Z,1.83
2022-11-16T05:12:55.924Z,2.67
2022-11-16T05:15:23.974Z,2.05
2022-11-16T05:17:54.853Z,1.38
2022-11-16T05:20:40.904Z,1.73
2022-11-16T05:23:29.632Z,3.55
2022-11-16T05:25:59.019Z,2.20
2022-11-16T05:28:27.094Z,2.17
2022-11-16T05:30:55.147Z,4.15
2022-11-16T05:33:23.208Z,3.30
2022-11-16T05:35:51.788Z,3.92
2022-11-16T05:38:20.305Z,4.53
2022-11-16T05:40:48.449Z,2.72
2022-11-16T05:43:17.838Z,2.08
2022-11-16T05:45:45.884Z,3.05
2022-11-16T05:48:14.137Z,3.08
2022-11-16T05:50:43.153Z,3.13
2022-11-16T05:53:11.588Z,4.68
2022-11-16T05:55:39.617Z,3.72
2022-11-16T05:58:07.676Z,3.00
2022-11-16T06:00:37.054Z,4.47
2022-11-16T06:03:05.382Z,3.05
2022-11-16T06:05:40.234Z,4.88
2022-11-16T06:08:08.821Z,2.75
2022-11-16T06:10:37.797Z,6.53
2022-11-16T06:13:05.871Z,3.92
2022-11-16T06:15:39.476Z,2.63
2022-11-16T06:18:08.109Z,3.28
2022-11-16T06:20:39.870Z,2.45
2022-11-16T06:23:08.419Z,2.72
2022-11-16T06:25:39.406Z,4.30
2022-11-16T06:28:08.379Z,4.57
2022-11-16T06:30:38.079Z,3.45
2022-11-16T06:33:07.995Z,3.53
2022-11-16T06:35:36.048Z,3.40
2022-11-16T06:38:04.144Z,3.22
2022-11-16T06:40:32.682Z,3.40
2022-11-16T06:43:00.820Z,2.53
2022-11-16T06:45:28.946Z,2.88
2022-11-16T06:47:57.009Z,2.40
2022-11-16T06:50:26.446Z,2.78
2022-11-16T06:52:55.016Z,2.83
2022-11-16T06:55:23.087Z,2.53
2022-11-16T06:57:51.133Z,2.65
2022-11-16T07:00:20.053Z,4.45
2022-11-16T07:02:48.410Z,2.63
2022-11-16T07:05:16.739Z,2.20
2022-11-16T07:07:46.515Z,3.50
2022-11-16T07:10:15.244Z,2.72
2022-11-16T07:12:43.244Z,2.00
2022-11-16T07:15:12.172Z,3.10
2022-11-16T07:17:41.039Z,3.63
2022-11-16T07:20:11.960Z,2.00
2022-11-16T07:22:40.362Z,3.80
2022-11-16T07:25:11.241Z,1.80
2022-11-16T07:27:39.220Z,1.65
2022-11-16T07:30:09.076Z,3.13
2022-11-16T07:32:39.799Z,1.80
2022-11-16T07:35:08.863Z,2.08
2022-11-16T07:37:37.000Z,1.40
2022-11-16T07:40:05.845Z,1.83
2022-11-16T07:42:35.263Z,1.92
2022-11-16T07:45:03.418Z,2.25
2022-11-16T07:47:37.866Z,1.45
2022-11-16T07:50:07.738Z,1.40
2022-11-16T07:52:35.800Z,1.33
2022-11-16T07:55:05.765Z,1.63
2022-11-16T07:57:35.115Z,2.00
2022-11-16T08:00:03.988Z,1.30
2022-11-16T08:02:32.042Z,1.67
2022-11-16T08:05:00.039Z,3.17
2022-11-16T08:07:28.149Z,1.33
2022-11-16T08:09:56.330Z,1.50
2022-11-16T08:12:24.399Z,2.10
2022-11-16T08:14:53.804Z,2.75
2022-11-16T08:17:21.830Z,2.13
2022-11-16T08:19:50.410Z,2.03
2022-11-16T08:22:18.467Z,2.00
2022-11-16T08:24:46.532Z,1.58
2022-11-16T08:27:16.953Z,1.58
2022-11-16T08:29:44.944Z,1.45
2022-11-16T08:32:14.287Z,1.63
2022-11-16T08:34:42.314Z,1.88
2022-11-16T08:37:10.360Z,1.42
2022-11-16T08:39:38.384Z,1.42
2022-11-16T08:42:06.665Z,2.65
2022-11-16T08:44:34.723Z,1.77
2022-11-16T08:47:02.797Z,1.45
2022-11-16T08:49:32.182Z,2.83
2022-11-16T08:52:00.236Z,1.08
2022-11-16T08:54:29.863Z,1.50
2022-11-16T08:56:57.939Z,2.15
2022-11-16T08:59:26.027Z,1.50
2022-11-16T09:01:54.145Z,1.33
2022-11-16T09:04:23.280Z,1.60
2022-11-16T09:06:54.899Z,1.30
2022-11-16T09:09:23.025Z,2.05
2022-11-16T09:11:53.543Z,1.33
2022-11-16T09:14:21.905Z,0.82
2022-11-16T09:16:50.155Z,1.27
2022-11-16T09:19:18.219Z,2.55
2022-11-16T09:21:46.466Z,1.48
2022-11-16T09:24:16.333Z,2.20
2022-11-16T09:26:44.387Z,1.25
2022-11-16T09:29:15.770Z,1.85
2022-11-16T09:31:43.831Z,1.05
2022-11-16T09:34:12.179Z,1.25
2022-11-16T09:36:40.385Z,1.38
2022-11-16T09:42:20.899Z,1.00
2022-11-16T09:45:20.955Z,1.38
2022-11-16T09:47:53.086Z,1.45
2022-11-16T09:50:43.727Z,1.67
2022-11-16T09:53:34.785Z,1.25
2022-11-16T09:56:07.553Z,1.45
2022-11-16T09:58:47.361Z,1.20
2022-11-16T10:01:27.027Z,2.03
2022-11-16T10:04:06.573Z,1.58
2022-11-16T10:06:48.733Z,1.98
2022-11-16T10:09:20.292Z,1.58
2022-11-16T10:12:16.579Z,1.52
2022-11-16T10:15:23.540Z,1.75
2022-11-16T10:18:13.580Z,2.10
2022-11-16T10:21:19.399Z,1.92
2022-11-16T10:24:05.710Z,1.63
2022-11-16T10:26:45.732Z,1.55
2022-11-16T10:29:41.108Z,0.90
2022-11-16T10:32:25.976Z,1.20
2022-11-16T10:34:56.127Z,1.13
2022-11-16T10:37:32.163Z,1.42
2022-11-16T10:40:00.533Z,1.00
2022-11-16T10:42:39.576Z,0.98
2022-11-16T10:45:20.724Z,2.45
2022-11-16T10:47:59.450Z,1.00
2022-11-16T10:50:38.518Z,1.00
2022-11-16T10:53:07.160Z,1.00
2022-11-16T10:55:35.514Z,1.02
2022-11-16T10:58:06.667Z,3.20
2022-11-16T11:00:49.740Z,1.35
2022-11-16T11:03:32.985Z,1.08
2022-11-16T11:06:01.568Z,1.40
2022-11-16T11:08:32.292Z,1.73
2022-11-16T11:11:23.543Z,1.35
2022-11-16T11:14:10.601Z,1.83
2022-11-16T11:16:41.350Z,1.00
2022-11-16T11:19:28.762Z,1.45
2022-11-16T11:21:59.113Z,1.27
2022-11-16T11:24:45.440Z,1.63
2022-11-16T11:27:14.499Z,2.47
2022-11-16T11:29:44.465Z,1.80
2022-11-16T11:32:23.960Z,1.63
2022-11-16T11:34:57.177Z,1.50
2022-11-16T11:37:30.742Z,3.72
2022-11-16T11:40:21.446Z,2.75
2022-11-16T11:42:59.983Z,1.27
2022-11-16T11:45:45.872Z,1.88
2022-11-16T11:48:32.510Z,1.65
2022-11-16T11:51:12.393Z,2.25
2022-11-16T11:53:59.398Z,1.58
2022-11-16T11:56:32.135Z,1.42
2022-11-16T11:59:00.208Z,2.25
2022-11-16T12:02:02.346Z,1.40
2022-11-16T12:05:10.809Z,1.98
2022-11-16T12:07:59.136Z,0.82
2022-11-16T12:10:39.114Z,1.88
2022-11-16T12:13:37.534Z,2.30
2022-11-16T12:16:18.975Z,2.03
2022-11-16T12:19:21.449Z,1.05
2022-11-16T12:22:06.901Z,1.10
2022-11-16T12:24:56.709Z,1.35
2022-11-16T12:27:40.095Z,1.10
2022-11-16T12:30:15.843Z,1.63
2022-11-16T12:33:17.480Z,1.30
2022-11-16T12:36:01.915Z,1.15
2022-11-16T12:38:56.293Z,1.55
2022-11-16T12:42:01.490Z,1.90
2022-11-16T12:44:59.867Z,0.60
2022-11-16T12:47:44.183Z,1.27
2022-11-16T12:50:43.576Z,1.00
2022-11-16T12:53:42.391Z,1.35
2022-11-16T12:56:26.283Z,1.33
2022-11-16T12:59:25.442Z,1.05
2022-11-16T13:02:10.863Z,1.13
2022-11-16T13:04:45.630Z,1.30
2022-11-16T13:07:22.523Z,1.85
2022-11-16T13:09:59.490Z,0.70
2022-11-16T13:12:30.640Z,1.15
2022-11-16T13:15:04.095Z,0.75
2022-11-16T13:17:38.482Z,0.57
2022-11-16T13:20:28.955Z,0.90
2022-11-16T13:23:06.599Z,1.02
2022-11-16T13:25:46.752Z,1.33
2022-11-16T13:28:33.156Z,1.52
2022-11-16T13:31:12.192Z,0.65
2022-11-16T13:33:51.274Z,1.00
2022-11-16T13:36:45.670Z,1.10
2022-11-16T13:39:22.262Z,0.60
